Time;durP1;ratioP1;P1;durP2;ratioP2;P2;SDS_P1;SDS_P2;PMS_P1;PMS_P2;Temp;Humidity;BMP_temperature;BMP_pressure;BME280_temperature;BME280_humidity;BME280_pressure;Samples;Min_cycle;Max_cycle;Signal;HPM_P1;HPM_P2
2023/06/08 00:03:57;;;;;;;9.5;7.4;;;;;;;14.2;89.8;98760;;;;
2023/06/08 00:13:57;;;;;;;10.2;7.8;;;;;;;14.4;90.1;98760;;;;
2023/06/08 00:24:57;;;;;;;10.2;7.8;;;;;;;14.6;89.5;98770;;;;
2023/06/08 00:35:58;;;;;;;10.2;7.8;;;;;;;14.8;89.4;98760;;;;
2023/06/08 00:45:57;;;;;;;11.1;8;;;;;;;15;88.8;98760;;;;
2023/06/08 00:55:57;;;;;;;11.1;8;;;;;;;15.2;88.6;98760;;;;
2023/06/08 01:06:58;;;;;;;11.1;8;;;;;;;15.4;88.5;98760;;;;
2023/06/08 01:17:57;;;;;;;16.4;12.7;;;;;;;15.6;88.4;98750;;;;
2023/06/08 01:27:58;;;;;;;16.4;12.7;;;;;;;15.7;88.6;98750;;;;
2023/06/08 01:37:57;;;;;;;16.4;12.7;;;;;;;15.7;89.1;98750;;;;
2023/06/08 01:48:58;;;;;;;23.2;17.8;;;;;;;15.7;89.5;98750;;;;
2023/06/08 01:59:57;;;;;;;23.2;17.8;;;;;;;15.9;89.2;98760;;;;
2023/06/08 02:10:57;;;;;;;23.2;17.8;;;;;;;15.9;89.1;98760;;;;
2023/06/08 02:20:57;;;;;;;19.2;15.8;;;;;;;15.9;89;98760;;;;
2023/06/08 02:30:57;;;;;;;19.2;15.8;;;;;;;15.8;89.3;98760;;;;
2023/06/08 02:40:57;;;;;;;19.2;15.8;;;;;;;15.9;89;98760;;;;
2023/06/08 02:51:57;;;;;;;16.8;13.1;;;;;;;15.9;89;98770;;;;
2023/06/08 03:02:59;;;;;;;16.8;13.1;;;;;;;15.9;88.7;98770;;;;
2023/06/08 03:12:57;;;;;;;16.8;13.1;;;;;;;15.9;88.8;98770;;;;
2023/06/08 03:23:57;;;;;;;17.6;12.1;;;;;;;16;88.7;98780;;;;
2023/06/08 03:34:57;;;;;;;17.6;12.1;;;;;;;16.1;87.9;98770;;;;
2023/06/08 03:44:57;;;;;;;22.6;19;;;;;;;16;88.2;98770;;;;
2023/06/08 03:55:57;;;;;;;22.6;19;;;;;;;16.2;87.6;98760;;;;
2023/06/08 04:05:57;;;;;;;22.6;19;;;;;;;16.2;87.7;98760;;;;
2023/06/08 04:15:57;;;;;;;25.2;19.3;;;;;;;16.4;87.3;98750;;;;
2023/06/08 04:25:57;;;;;;;25.2;19.3;;;;;;;16.2;87;98750;;;;
2023/06/08 04:35:57;;;;;;;25.2;19.3;;;;;;;16;86.4;98760;;;;
2023/06/08 04:46:57;;;;;;;19.1;14.8;;;;;;;15.9;86.3;98760;;;;
2023/06/08 04:56:58;;;;;;;19.1;14.8;;;;;;;16.1;85.3;98770;;;;
2023/06/08 05:06:57;;;;;;;19.1;14.8;;;;;;;15.6;86.4;98770;;;;
2023/06/08 05:16:57;;;;;;;15.5;12;;;;;;;15.7;86;98780;;;;
2023/06/08 05:26:57;;;;;;;15.5;12;;;;;;;16.2;84.6;98780;;;;
2023/06/08 05:36:57;;;;;;;15.5;12;;;;;;;16.1;84;98780;;;;
2023/06/08 05:47:57;;;;;;;18.5;15;;;;;;;15.9;84.1;98790;;;;
2023/06/08 05:58:57;;;;;;;18.5;15;;;;;;;16.1;83.9;98790;;;;
2023/06/08 06:09:57;;;;;;;18.5;15;;;;;;;16.2;83.5;98800;;;;
2023/06/08 06:19:57;;;;;;;20.5;16.6;;;;;;;16.4;83.1;98800;;;;
2023/06/08 06:29:57;;;;;;;20.5;16.6;;;;;;;16.3;82.2;98810;;;;
2023/06/08 06:39:57;;;;;;;20.5;16.6;;;;;;;16.5;81.9;98800;;;;
2023/06/08 06:49:57;;;;;;;23.8;20.2;;;;;;;16.9;80.4;98800;;;;
2023/06/08 07:00:57;;;;;;;23.8;20.2;;;;;;;16.9;79.8;98810;;;;
2023/06/08 07:11:57;;;;;;;23.8;20.2;;;;;;;16.7;80.9;98810;;;;
2023/06/08 07:22:57;;;;;;;29.3;24.6;;;;;;;16.8;80;98820;;;;
2023/06/08 07:33:57;;;;;;;29.3;24.6;;;;;;;16.7;80.9;98810;;;;
2023/06/08 07:43:57;;;;;;;28.2;24.3;;;;;;;16.8;81.4;98820;;;;
2023/06/08 07:53:57;;;;;;;28.2;24.3;;;;;;;17.1;79.8;98820;;;;
2023/06/08 08:04:57;;;;;;;28.2;24.3;;;;;;;17.4;78.9;98810;;;;
2023/06/08 08:14:57;;;;;;;24.4;19.5;;;;;;;17.4;78.9;98820;;;;
2023/06/08 08:24:57;;;;;;;24.4;19.5;;;;;;;17.7;78.2;98830;;;;
2023/06/08 08:35:57;;;;;;;24.4;19.5;;;;;;;17.6;77.9;98820;;;;
2023/06/08 08:47:02;;;;;;;30.4;25.1;;;;;;;17.8;77.2;98820;;;;
2023/06/08 08:57:57;;;;;;;30.4;25.1;;;;;;;18.2;75.7;98820;;;;
2023/06/08 09:07:57;;;;;;;30.4;25.1;;;;;;;18.6;73.7;98810;;;;
2023/06/08 09:18:57;;;;;;;31.1;24.9;;;;;;;18.7;74.7;98820;;;;
2023/06/08 09:28:57;;;;;;;31.1;24.9;;;;;;;19.5;71;98810;;;;
2023/06/08 09:38:57;;;;;;;31.1;24.9;;;;;;;19.8;70;98810;;;;
2023/06/08 09:48:57;;;;;;;26.1;20.6;;;;;;;20.3;67.1;98800;;;;
2023/06/08 09:58:57;;;;;;;26.1;20.6;;;;;;;20.3;68.1;98780;;;;
2023/06/08 10:08:57;;;;;;;26.1;20.6;;;;;;;20.9;64.2;98770;;;;
2023/06/08 10:19:58;;;;;;;19.6;17;;;;;;;20.9;65.4;98760;;;;
2023/06/08 10:29:57;;;;;;;19.6;17;;;;;;;20.9;62.8;98770;;;;
2023/06/08 10:39:57;;;;;;;19.6;17;;;;;;;21.4;62;98760;;;;
2023/06/08 10:49:57;;;;;;;15.7;11.8;;;;;;;22;61.6;98750;;;;
2023/06/08 11:00:57;;;;;;;15.7;11.8;;;;;;;22;61.2;98740;;;;
2023/06/08 11:10:57;;;;;;;15.7;11.8;;;;;;;22;58.7;98720;;;;
2023/06/08 11:20:58;;;;;;;16.7;11.5;;;;;;;21.8;60.9;98720;;;;
2023/06/08 11:30:59;;;;;;;16.7;11.5;;;;;;;22.9;57.5;98700;;;;
2023/06/08 11:40:57;;;;;;;16.7;11.5;;;;;;;22.5;58.4;98690;;;;
2023/06/08 11:50:57;;;;;;;17.1;12.3;;;;;;;22.1;58.9;98680;;;;
2023/06/08 12:00:58;;;;;;;17.1;12.3;;;;;;;23.6;55.3;98660;;;;
2023/06/08 12:11:57;;;;;;;17.1;12.3;;;;;;;23.6;54;98650;;;;
2023/06/08 12:22:57;;;;;;;12.2;9.4;;;;;;;23.5;55.8;98640;;;;
2023/06/08 12:33:57;;;;;;;12.2;9.4;;;;;;;22.6;56.4;98640;;;;
2023/06/08 12:44:57;;;;;;;14.8;9.4;;;;;;;23.7;53.8;98630;;;;
2023/06/08 12:54:57;;;;;;;14.8;9.4;;;;;;;23.9;53.2;98630;;;;
2023/06/08 13:05:57;;;;;;;14.8;9.4;;;;;;;23.5;53;98620;;;;
2023/06/08 13:16:57;;;;;;;11.3;7;;;;;;;23.6;54.3;98610;;;;
2023/06/08 13:26:58;;;;;;;11.3;7;;;;;;;23.9;52.4;98620;;;;
2023/06/08 13:37:57;;;;;;;11.3;7;;;;;;;24.1;54.7;98610;;;;
2023/06/08 13:47:57;;;;;;;10;7.2;;;;;;;23.4;55.6;98610;;;;
2023/06/08 13:58:57;;;;;;;10;7.2;;;;;;;23.3;57.4;98620;;;;
2023/06/08 14:08:58;;;;;;;10;7.2;;;;;;;23.5;57.3;98610;;;;
2023/06/08 14:19:57;;;;;;;10.6;8.1;;;;;;;23.1;56.7;98610;;;;
2023/06/08 14:29:57;;;;;;;10.6;8.1;;;;;;;24.2;55.1;98600;;;;
2023/06/08 14:40:57;;;;;;;10.6;8.1;;;;;;;23.1;60.1;98610;;;;
2023/06/08 14:51:57;;;;;;;11.4;7.3;;;;;;;23.7;56.4;98610;;;;
2023/06/08 15:01:57;;;;;;;11.4;7.3;;;;;;;23.8;56.1;98600;;;;
2023/06/08 15:12:57;;;;;;;11.4;7.3;;;;;;;22.9;59;98610;;;;
2023/06/08 15:22:59;;;;;;;10.4;7.3;;;;;;;24.6;55;98580;;;;
2023/06/08 15:33:57;;;;;;;10.4;7.3;;;;;;;25.7;51.6;98580;;;;
2023/06/08 15:44:57;;;;;;;10.6;7.3;;;;;;;23.8;56.2;98570;;;;
2023/06/08 15:54:57;;;;;;;10.6;7.3;;;;;;;23.8;56.5;98570;;;;
2023/06/08 16:04:58;;;;;;;10.6;7.3;;;;;;;22.2;59.8;98580;;;;
2023/06/08 16:14:57;;;;;;;9.1;6.2;;;;;;;22.1;60.9;98590;;;;
2023/06/08 16:25:57;;;;;;;9.1;6.2;;;;;;;21.7;63.4;98590;;;;
2023/06/08 16:35:57;;;;;;;9.1;6.2;;;;;;;21.3;64.1;98580;;;;
2023/06/08 16:45:57;;;;;;;11.2;6.5;;;;;;;21;65.2;98570;;;;
2023/06/08 16:55:57;;;;;;;11.2;6.5;;;;;;;20.5;67.6;98580;;;;
2023/06/08 17:06:57;;;;;;;11.2;6.5;;;;;;;20.4;68;98570;;;;
2023/06/08 17:16:57;;;;;;;13.9;10.5;;;;;;;20.3;69;98570;;;;
2023/06/08 17:26:57;;;;;;;13.9;10.5;;;;;;;20.1;69.7;98570;;;;
2023/06/08 17:37:57;;;;;;;13.9;10.5;;;;;;;19.9;70.7;98560;;;;
2023/06/08 17:47:57;;;;;;;12;10.1;;;;;;;19.7;71.5;98550;;;;
2023/06/08 17:58:57;;;;;;;12;10.1;;;;;;;19.5;72.1;98550;;;;
2023/06/08 18:08:58;;;;;;;12;10.1;;;;;;;19.4;72.4;98550;;;;
2023/06/08 18:19:57;;;;;;;13.7;9.6;;;;;;;19.3;72.7;98570;;;;
2023/06/08 18:29:57;;;;;;;13.7;9.6;;;;;;;19.1;74;98570;;;;
2023/06/08 18:40:57;;;;;;;13.7;9.6;;;;;;;19;74.4;98570;;;;
2023/06/08 18:50:57;;;;;;;13.1;9.5;;;;;;;18.8;75.7;98570;;;;
2023/06/08 19:01:57;;;;;;;13.1;9.5;;;;;;;18.6;76.4;98570;;;;
2023/06/08 19:11:57;;;;;;;13.1;9.5;;;;;;;18.5;76.9;98580;;;;
2023/06/08 19:21:58;;;;;;;15.8;11;;;;;;;18.3;77.6;98590;;;;
2023/06/08 19:31:57;;;;;;;15.8;11;;;;;;;18.2;77.7;98580;;;;
2023/06/08 19:42:02;;;;;;;15.8;11;;;;;;;18;79.5;98580;;;;
2023/06/08 19:51:57;;;;;;;13.5;10.7;;;;;;;18;79.4;98580;;;;
2023/06/08 20:02:57;;;;;;;13.5;10.7;;;;;;;17.8;80.1;98580;;;;
2023/06/08 20:13:01;;;;;;;13.5;10.7;;;;;;;17.5;81.1;98580;;;;
2023/06/08 20:22:57;;;;;;;13.5;10.4;;;;;;;17.3;82.3;98580;;;;
2023/06/08 20:33:57;;;;;;;13.5;10.4;;;;;;;17.3;81.9;98580;;;;
2023/06/08 20:43:57;;;;;;;13.5;10.4;;;;;;;17.1;83.5;98590;;;;
2023/06/08 20:53:57;;;;;;;11.7;9.9;;;;;;;17;84;98580;;;;
2023/06/08 21:04:57;;;;;;;11.7;9.9;;;;;;;17;84.1;98570;;;;
2023/06/08 21:14:57;;;;;;;12;8.9;;;;;;;16.9;84.8;98570;;;;
2023/06/08 21:24:57;;;;;;;12;8.9;;;;;;;16.9;85.4;98570;;;;
2023/06/08 21:35:57;;;;;;;12;8.9;;;;;;;16.9;84.9;98570;;;;
2023/06/08 21:46:57;;;;;;;12.6;9.3;;;;;;;16.8;85.2;98570;;;;
2023/06/08 21:56:57;;;;;;;12.6;9.3;;;;;;;16.7;85.3;98580;;;;
2023/06/08 22:07:57;;;;;;;12.6;9.3;;;;;;;16.7;85.2;98570;;;;
2023/06/08 22:18:00;;;;;;;11;9;;;;;;;16.6;85.2;98560;;;;
2023/06/08 22:28:57;;;;;;;11;9;;;;;;;16.5;85.3;98560;;;;
2023/06/08 22:38:57;;;;;;;11;9;;;;;;;16.4;85.7;98560;;;;
2023/06/08 22:48:57;;;;;;;11.7;9.3;;;;;;;16.3;86.1;98560;;;;
2023/06/08 22:59:57;;;;;;;11.7;9.3;;;;;;;16.2;86.9;98570;;;;
2023/06/08 23:09:57;;;;;;;11.7;9.3;;;;;;;16.2;86.7;98570;;;;
2023/06/08 23:20:57;;;;;;;15.1;10.5;;;;;;;16.1;85.9;98560;;;;
2023/06/08 23:30:57;;;;;;;15.1;10.5;;;;;;;16.1;86;98550;;;;
2023/06/08 23:41:57;;;;;;;15.1;10.5;;;;;;;16;86.6;98540;;;;
2023/06/08 23:51:57;;;;;;;14.5;11.3;;;;;;;16.1;86.9;98540;;;;
